Date,TemperatureHighF,TemperatureAvgF,TemperatureLowF,DewpointHighF,DewpointAvgF,DewpointLowF,HumidityHigh,HumidityAvg,HumidityLow,PressureMaxIn,PressureMinIn,WindSpeedMaxMPH,WindSpeedAvgMPH,GustSpeedMaxMPH,PrecipitationSumIn
2014-1-1,45.3,43.5,39.7,45.1,43.0,39.5,99,98,93,30.11,29.91,2,0,6,0.01
2014-1-2,45.5,42.4,40.1,45.2,42.0,39.8,99,98,96,30.12,29.93,2,0,5,0.00
2014-1-3,49.5,45.3,39.6,46.0,43.8,38.5,99,95,80,29.96,29.59,6,1,14,0.46
2014-1-4,46.6,41.2,36.9,41.5,38.7,35.3,99,91,74,30.09,29.78,4,0,9,0.01
2014-1-5,43.9,38.2,33.4,38.8,35.8,32.1,99,91,78,30.19,30.10,4,1,8,0.01
2014-1-6,33.8,33.3,31.8,33.4,32.9,30.8,99,98,93,30.21,30.18,2,0,4,0.00
2014-1-7,33.4,33.4,33.4,33.2,33.2,33.2,99,99,99,30.19,30.19,0,0,2,0.00
2014-1-8,51.3,48.7,46.8,50.4,48.3,46.5,99,99,96,30.42,30.35,2,0,5,0.00
2014-1-9,51.4,47.1,43.9,51.0,46.1,39.8,99,96,85,30.37,29.91,7,2,14,0.02
2014-1-10,47.3,44.3,41.4,46.9,42.7,39.2,99,94,86,30.23,29.95,8,2,19,0.08
2014-1-11,52.0,47.1,45.3,50.8,45.4,43.7,99,94,89,30.33,29.67,9,3,24,0.22
2014-1-12,52.5,45.4,41.2,50.7,43.6,39.3,98,93,86,30.13,29.57,11,3,23,0.90
2014-1-13,50.7,46.5,41.4,48.9,44.5,38.4,98,93,82,30.39,30.13,6,1,12,0.00
2014-1-14,50.2,50.2,50.2,48.5,48.5,48.5,94,94,94,30.39,30.39,0,0,3,0.00
2014-1-15,50.2,50.2,50.2,48.5,48.5,48.5,94,94,94,30.39,30.39,0,0,3,0.00
2014-1-16,50.2,50.2,50.2,48.5,48.5,48.5,94,94,94,30.39,30.39,0,0,3,0.00
2014-1-17,44.1,41.5,39.6,43.5,41.1,39.3,99,98,95,29.85,29.69,2,1,7,0.00
2014-1-18,42.6,40.7,38.7,41.8,40.0,-0.8,99,97,93,29.70,29.53,12,0,12,0.00
2014-1-19,45.3,39.7,36.0,42.7,38.9,35.7,99,97,88,29.62,29.50,2,0,5,0.00
2014-1-20,42.4,40.2,36.1,42.2,39.8,35.9,99,98,97,29.67,29.52,3,0,8,0.00
2014-1-21,46.2,41.0,37.9,41.0,39.4,37.2,99,94,79,29.70,29.60,4,1,9,0.00
2014-1-22,48.4,42.0,34.9,44.9,40.5,34.6,99,94,81,29.70,29.55,4,0,8,0.01
2014-1-23,48.7,44.5,43.0,46.9,43.1,40.9,99,95,89,29.80,29.70,4,1,8,0.00
2014-1-24,43.2,42.9,42.6,41.3,40.8,40.5,93,92,92,29.82,29.73,5,4,10,0.00
2014-1-25,43.9,39.2,35.8,42.0,38.8,35.0,99,98,92,29.78,29.62,5,1,10,0.01
2014-1-26,53.8,41.8,36.3,43.9,39.0,36.1,99,90,63,29.74,29.60,2,0,4,0.01
2014-1-27,41.7,41.7,41.7,39.6,39.6,39.6,92,92,92,29.61,29.61,2,2,2,0.00
2014-1-28,41.7,41.7,41.7,39.6,39.6,39.6,92,92,92,29.61,29.61,2,2,2,0.00
2014-1-29,46.9,43.7,41.7,46.7,42.4,39.6,99,95,92,29.93,29.61,2,1,5,0.24
2014-1-30,49.3,45.4,43.9,49.0,45.1,42.4,99,99,94,29.64,29.41,6,1,14,0.50
2014-1-31,46.2,43.7,41.9,42.7,40.9,39.7,98,90,79,29.72,29.58,8,2,16,0.01
2014-2-1,46.8,41.1,38.1,41.5,36.3,29.9,99,84,63,29.95,29.72,4,0,9,0.05
2014-2-2,47.7,40.0,35.4,42.2,36.9,31.1,98,89,72,29.97,29.84,2,0,4,0.01
2014-2-3,46.9,38.5,34.0,46.7,32.5,23.9,99,80,58,29.95,29.80,4,1,10,0.00
2014-2-4,38.5,35.7,34.0,27.0,19.1,15.0,73,51,42,30.03,29.93,7,2,15,0.00
2014-2-5,35.8,35.8,35.8,15.5,15.5,15.5,43,43,43,30.03,30.03,2,2,8,0.00
2014-2-6,35.8,35.8,35.8,15.5,15.5,15.5,43,43,43,30.03,30.03,2,2,8,0.00
2014-2-7,35.8,35.8,35.8,15.5,15.5,15.5,43,43,43,30.03,30.03,2,2,8,0.00
2014-2-8,35.8,35.8,35.8,15.5,15.5,15.5,43,43,43,30.03,30.03,2,2,8,0.00
2014-2-9,35.8,35.8,35.8,15.5,15.5,15.5,43,43,43,30.03,30.03,2,2,8,0.00
2014-2-10,50.9,38.8,35.1,50.4,37.6,32.7,99,95,89,29.93,29.86,2,0,4,0.20
2014-2-11,49.6,44.4,35.4,47.5,43.6,35.2,99,97,92,29.88,29.82,7,2,17,0.35
2014-2-12,47.7,46.2,44.4,46.9,45.8,44.2,99,99,94,29.84,29.30,2,1,10,0.85
2014-2-13,53.6,49.0,44.2,49.6,43.9,39.7,99,84,60,29.71,29.30,9,3,21,0.08
2014-2-14,54.3,47.2,42.6,46.6,40.6,37.4,96,78,60,29.90,29.50,8,2,19,0.08
2014-2-15,52.9,47.1,41.5,47.9,43.9,39.9,99,89,72,29.78,29.43,8,2,17,0.32
2014-2-16,47.3,42.0,37.0,46.7,40.3,36.3,99,94,79,30.62,29.05,10,1,23,0.38
2014-2-17,47.1,42.2,37.9,43.3,39.8,36.6,99,91,73,30.53,30.26,8,3,22,1.07
2014-2-18,41.9,41.6,39.6,41.6,41.3,36.2,99,99,98,30.30,30.26,3,1,11,0.07
2014-2-19,46.9,41.6,39.7,46.7,40.3,36.7,99,95,84,30.30,29.94,8,2,18,0.44
2014-2-20,48.4,42.0,37.2,41.0,38.2,36.2,98,87,69,30.38,30.12,7,2,13,0.02
2014-2-21,52.3,45.4,40.8,43.7,41.0,36.4,98,85,67,30.48,30.24,7,1,16,0.04
2014-2-22,44.8,41.0,37.6,38.7,36.6,34.4,91,84,74,30.56,30.48,4,0,8,0.00
2014-2-23,46.9,39.0,36.1,46.7,37.6,33.3,99,94,85,30.49,29.78,3,0,8,0.09
2014-2-24,46.9,39.4,36.3,46.7,38.1,36.1,99,95,87,30.02,29.73,3,1,8,0.11
2014-2-25,41.2,39.0,36.5,40.7,38.7,36.2,99,99,99,30.09,29.99,4,2,11,0.22
2014-2-26,47.7,42.0,37.6,41.8,39.1,36.8,99,90,78,30.09,29.93,5,2,11,0.01
2014-2-27,56.8,46.0,39.6,41.8,39.4,35.6,94,79,52,29.93,29.63,4,1,11,0.00
2014-2-28,54.9,46.7,40.6,43.2,40.9,38.8,95,81,58,29.71,29.59,4,1,10,0.00
2014-3-1,54.0,46.4,34.5,44.9,37.6,29.0,99,73,52,29.70,29.46,100,3,100,0.00
2014-3-2,42.8,41.9,38.5,34.8,31.4,30.9,86,66,63,29.67,29.52,2,2,7,0.04
2014-3-3,47.7,41.6,36.5,47.2,41.1,34.8,99,98,86,30.37,29.58,7,1,15,0.67
2014-3-4,57.4,49.6,45.9,51.7,47.4,45.3,99,93,69,30.26,29.99,10,2,14,0.19
2014-3-5,51.4,47.9,41.0,50.9,47.6,40.7,99,99,97,30.28,30.08,4,1,12,0.24
2014-3-6,60.4,52.8,49.3,54.6,51.5,48.6,99,96,78,30.08,29.75,8,1,17,1.09
2014-3-7,55.0,50.6,48.4,51.4,48.2,46.6,99,91,78,30.45,29.82,8,3,18,0.25
2014-3-8,66.0,51.2,44.1,49.5,45.3,41.8,94,81,49,30.60,30.42,5,1,11,0.00
2014-3-9,52.3,48.5,43.5,52.1,47.0,40.4,99,95,83,30.42,30.04,6,1,14,0.79
2014-3-10,63.7,51.9,46.6,56.0,49.7,46.3,99,93,71,30.34,30.18,4,1,8,0.11
2014-3-11,54.9,46.9,42.4,50.9,45.4,41.9,99,95,79,30.85,30.28,3,0,8,0.22
2014-3-12,61.0,48.0,40.3,50.9,42.4,37.7,99,82,48,30.92,30.73,3,0,6,0.00
2014-3-13,70.3,51.4,39.4,47.6,41.0,35.8,99,70,33,30.73,30.46,2,0,7,0.01
2014-3-14,62.4,50.0,41.0,49.0,44.3,39.9,99,82,52,30.50,30.26,4,1,11,0.00
2014-3-15,62.1,51.7,44.1,51.1,45.9,41.0,99,82,51,30.65,30.20,7,2,17,0.05
2014-3-16,59.2,50.8,43.9,52.7,47.0,41.4,99,88,64,30.64,30.48,6,1,11,0.09
2014-3-17,49.1,45.3,19.2,48.8,43.5,-6.7,99,96,10,30.52,30.28,79,3,79,0.60
2014-3-18,58.6,48.3,38.8,46.9,39.3,36.2,99,73,54,30.59,30.36,3,0,6,0.01
2014-3-19,51.8,51.8,51.8,37.9,37.9,37.9,59,59,59,30.59,30.59,0,0,2,0.00
2014-3-20,51.8,51.8,51.8,37.9,37.9,37.9,59,59,59,30.59,30.59,0,0,2,0.00
2014-3-21,51.8,51.8,51.8,37.9,37.9,37.9,59,59,59,30.59,30.59,0,0,2,0.00
2014-3-22,51.8,51.8,51.8,37.9,37.9,37.9,59,59,59,30.59,30.59,0,0,2,0.00
2014-3-23,51.8,51.8,51.8,37.9,37.9,37.9,59,59,59,30.59,30.59,0,0,2,0.00
2014-3-24,51.8,49.2,42.3,40.2,38.3,37.1,91,67,59,30.59,29.88,4,0,11,0.04
2014-3-25,75.6,54.6,41.5,44.6,39.5,31.8,96,61,27,29.88,29.46,4,1,8,0.00
2014-3-26,60.4,50.2,44.2,52.5,44.8,32.8,96,83,49,29.47,29.18,8,2,26,0.18
2014-3-27,54.9,46.9,40.1,48.0,44.5,28.0,99,92,73,29.28,29.17,3,0,9,0.11
2014-3-28,63.3,49.5,44.1,49.7,45.5,43.5,99,87,55,29.55,29.25,6,1,13,0.02
2014-3-29,53.2,48.6,45.1,51.6,47.1,43.3,99,95,86,29.50,29.33,37,1,49,0.24
2014-3-30,55.8,47.3,16.5,51.1,42.7,-25.6,99,90,10,29.50,29.34,5,2,14,0.63
2014-3-31,59.9,47.5,39.4,46.7,41.8,1.3,99,82,10,30.00,29.49,6,2,15,0.01
2014-4-1,60.6,48.5,38.3,44.5,40.8,37.3,97,76,51,29.91,29.67,8,2,13,0.00
2014-4-2,67.8,51.9,44.4,45.0,42.4,39.8,95,72,40,29.88,29.69,4,1,12,0.00
2014-4-3,67.5,51.7,45.5,45.9,42.1,36.3,94,72,37,29.97,29.88,4,1,9,0.00
2014-4-4,58.8,49.0,44.6,48.2,44.6,40.0,96,86,54,29.93,29.82,7,1,16,0.12
2014-4-5,61.7,49.8,23.4,47.3,43.4,-25.1,96,80,10,29.93,29.85,5,2,98,0.01
2014-4-6,53.4,49.4,45.9,50.9,47.6,44.8,99,94,83,30.10,29.90,5,1,11,0.08
2014-4-7,74.8,52.7,40.5,49.8,46.5,-11.8,96,82,10,30.26,30.10,2,0,7,0.00
2014-4-8,60.8,57.4,50.0,52.8,50.8,0.6,97,81,10,30.24,30.01,12,0,97,0.00
2014-4-9,66.2,52.6,4.3,53.9,49.3,-40.0,99,90,10,30.16,30.00,5,1,11,0.21
2014-4-10,65.5,51.0,41.5,47.3,42.8,37.1,99,76,35,30.24,30.15,3,1,8,0.01
2014-4-11,61.5,50.8,42.4,45.3,41.6,39.4,92,73,46,30.24,30.11,3,1,6,0.00
2014-4-12,71.6,55.0,41.2,48.5,44.7,39.8,97,71,40,30.13,29.97,4,1,7,0.00
2014-4-13,66.4,51.7,44.2,50.7,42.5,38.2,93,72,54,30.18,30.03,4,1,9,0.00
2014-4-14,77.2,63.3,6.3,44.7,30.8,-17.2,89,34,22,30.27,30.07,15,2,18,0.00
2014-4-15,66.9,65.8,44.8,44.0,27.7,26.9,93,26,22,30.11,29.99,2,2,6,0.06
2014-4-16,59.4,51.0,43.5,47.3,45.0,41.9,95,81,55,30.17,30.00,6,1,16,0.07
2014-4-17,54.1,50.9,48.6,51.3,49.7,47.4,99,96,84,30.01,29.83,4,1,12,0.14
2014-4-18,55.2,49.8,43.2,53.2,49.1,42.1,99,97,91,29.93,29.66,5,1,12,0.41
2014-4-19,64.6,50.4,43.0,45.7,41.2,38.5,96,73,41,30.08,29.76,5,1,11,0.01
2014-4-20,54.3,48.4,43.0,52.0,44.7,39.1,98,87,66,30.19,29.72,10,2,18,0.20
2014-4-21,67.8,54.8,44.8,45.2,41.9,35.5,96,64,35,30.25,30.03,4,1,9,0.00
2014-4-22,70.5,53.0,43.3,48.7,45.1,42.1,98,77,39,30.04,29.79,7,1,18,0.12
2014-4-23,64.8,48.8,41.4,48.3,43.1,39.3,99,83,46,29.85,29.79,6,1,14,0.40
2014-4-24,56.1,49.8,43.9,49.9,46.2,42.3,99,88,66,29.86,29.54,5,1,11,0.17
2014-4-25,57.9,50.6,43.5,51.7,46.3,41.6,99,86,66,29.85,29.54,7,2,18,0.22
2014-4-26,65.7,51.4,42.8,46.9,42.6,39.0,97,74,43,29.85,29.76,4,1,10,0.00
2014-4-27,65.1,50.8,43.9,46.3,41.8,32.2,98,75,31,29.79,29.59,6,2,15,0.11
2014-4-28,60.6,49.4,44.2,45.5,42.9,40.1,95,79,52,30.16,29.64,8,3,17,0.02
2014-4-29,80.6,54.4,42.4,45.4,39.0,30.8,95,60,24,30.38,30.16,4,1,8,0.00
2014-4-30,81.1,63.8,46.9,47.6,41.0,32.3,85,48,20,30.45,30.31,4,1,11,0.00
2014-5-1,82.0,65.8,52.2,50.1,44.5,34.7,79,49,21,30.33,30.07,5,2,13,0.00
2014-5-2,95.2,71.0,57.0,49.1,44.5,27.1,69,42,10,30.07,29.87,4,1,11,0.00
2014-5-3,75.4,66.8,56.5,55.5,53.0,45.0,84,62,47,30.00,29.89,4,3,9,0.00
2014-5-4,68.0,58.2,46.9,53.6,51.6,46.7,99,81,60,30.15,29.83,5,2,10,0.66
2014-5-5,60.3,52.7,49.1,55.0,51.1,48.8,99,94,74,29.99,29.82,6,1,17,0.34
2014-5-6,65.8,54.4,49.5,54.8,51.1,48.5,99,89,60,30.14,29.99,5,1,14,0.02
2014-5-7,71.4,54.9,44.8,52.5,47.4,43.2,96,77,43,30.15,30.07,4,1,8,0.00
2014-5-8,74.5,57.3,43.3,53.4,47.0,41.3,99,72,35,30.15,29.95,4,1,8,0.00
2014-5-9,58.5,53.0,49.6,54.6,49.3,44.0,99,88,63,29.96,29.73,8,2,15,0.30
2014-5-10,61.2,51.7,46.9,49.4,46.9,44.6,96,84,63,30.15,29.87,8,2,19,0.04
2014-5-11,68.7,54.9,46.8,49.5,45.5,43.3,98,72,42,30.35,30.15,4,1,9,0.00
2014-5-12,52.9,52.9,52.9,43.7,43.7,43.7,71,71,71,30.34,30.34,0,0,1,0.00
2014-5-13,52.9,52.9,52.9,43.7,43.7,43.7,71,71,71,30.34,30.34,0,0,1,0.00
2014-5-14,52.9,52.9,52.9,43.7,43.7,43.7,71,71,71,30.34,30.34,0,0,1,0.00
2014-9-29,59.7,53.7,52.0,53.9,51.7,50.8,97,93,81,29.91,29.86,0,0,0,0.00
2014-9-30,59.4,49.0,51.6,56.8,47.5,51.0,100,83,87,30.00,29.85,0,0,1,0.21
2014-10-1,65.6,40.0,51.9,53.6,35.0,48.8,96,53,57,30.14,29.99,0,0,1,0.01
2014-10-2,62.3,54.7,51.6,51.1,46.3,46.4,85,71,61,30.22,-32.77,0,0,1,0.00
2014-10-3,63.0,49.3,-90.0,52.0,42.0,-90.8,95,67,51,30.31,30.21,5,0,6,0.00
2014-10-4,66.5,51.4,-90.0,52.2,42.4,-91.1,93,62,51,30.29,30.14,4,0,5,0.00
2014-10-5,68.6,52.5,53.5,55.9,46.1,49.6,93,67,61,30.20,30.12,4,0,5,0.00
2014-10-6,68.8,55.7,53.7,58.7,50.6,49.4,91,74,70,30.15,30.06,6,0,7,0.00
2014-10-7,72.2,57.3,55.4,61.3,51.9,53.6,97,73,64,30.06,29.95,7,0,7,0.00
2014-10-8,63.9,50.6,54.5,59.0,49.0,53.6,100,81,84,29.97,29.90,5,0,6,0.00
2014-10-9,63.5,49.9,54.4,57.4,48.0,53.6,98,80,79,30.03,29.96,6,0,6,0.00
2014-10-10,61.6,46.5,-90.0,56.6,45.1,-90.0,100,81,83,30.06,30.00,4,0,4,0.00
2014-10-11,63.9,57.2,50.9,56.7,53.9,50.4,98,89,75,30.06,30.00,11,1,11,0.00
2014-10-12,62.7,56.4,52.9,56.8,52.8,50.6,96,88,72,30.22,30.03,5,0,5,0.19
2014-10-13,63.7,57.2,52.8,55.5,53.4,51.6,96,88,72,30.25,29.98,4,0,4,0.00
2014-10-14,66.5,58.0,51.2,55.3,52.1,48.0,97,82,52,29.98,29.64,9,0,9,0.36
2014-10-15,60.4,55.1,51.6,54.4,52.1,50.5,97,90,76,29.83,29.67,5,0,5,0.39
2014-10-16,57.2,53.5,51.1,53.7,50.5,47.4,97,90,84,30.00,29.53,12,1,12,0.33
2014-10-17,65.3,58.1,51.0,52.4,47.3,43.1,90,68,50,30.03,29.77,6,0,6,0.01
2014-10-18,57.4,55.5,52.5,55.3,52.3,44.6,97,89,64,29.87,29.72,4,0,4,0.17
2014-10-19,65.0,59.5,56.1,60.0,57.5,55.3,98,93,84,29.95,29.76,5,0,5,0.21
2014-10-20,69.8,61.4,56.2,59.5,56.3,54.2,97,84,65,29.77,29.66,10,0,10,0.08
2014-10-21,63.1,57.0,52.8,57.3,54.1,50.9,97,90,72,29.81,29.67,7,0,7,0.27
2014-10-22,61.4,56.5,52.3,53.4,51.1,48.3,96,83,71,29.92,29.75,13,1,13,0.07
2014-10-23,55.4,54.0,51.5,54.7,52.8,49.6,98,96,93,29.73,29.55,9,1,9,1.41
2014-10-24,54.6,50.3,47.9,50.6,47.9,44.8,95,91,82,30.02,29.69,20,1,20,0.29
2014-10-25,57.2,50.7,46.2,50.2,47.3,44.6,95,88,76,30.05,29.88,6,0,6,0.02
2014-10-26,58.0,53.4,50.1,53.6,50.3,45.8,96,89,82,29.81,29.24,18,2,18,0.34
2014-10-27,53.5,49.2,45.1,49.0,45.9,42.8,95,88,79,30.16,29.80,16,1,16,0.00
2014-10-28,56.7,50.8,45.2,48.9,45.7,42.9,96,83,63,30.16,29.91,5,0,5,0.05
2014-10-29,56.7,52.6,48.1,54.6,50.9,46.1,98,94,89,29.91,29.83,9,0,9,0.63
2014-10-30,55.1,53.2,51.9,51.5,50.7,49.5,95,91,86,30.08,29.96,1,0,1,0.07
2014-10-31,57.6,54.4,50.8,55.8,52.4,48.9,98,93,85,29.96,29.72,7,0,7,0.79
2014-11-1,53.0,50.4,49.0,51.3,49.4,48.3,98,96,88,29.87,29.68,6,0,6,0.76
2014-11-2,51.8,47.8,44.6,48.8,45.8,43.3,98,93,82,30.08,29.84,5,0,5,0.00
2014-11-3,52.1,51.6,51.0,50.8,50.3,44.4,97,95,94,30.08,30.06,6,0,6,0.11
2014-11-4,55.1,53.3,51.8,53.3,51.7,50.1,97,94,91,30.10,29.98,11,1,11,0.16
2014-11-5,54.7,53.3,51.8,53.3,50.6,47.1,98,91,81,30.27,29.97,8,0,8,0.12
2014-11-6,55.3,54.8,54.4,54.7,54.1,53.8,98,98,97,30.03,29.90,3,0,3,0.44
2014-11-7,61.1,53.9,48.2,55.8,51.3,45.8,99,91,79,30.33,29.77,17,1,17,0.28
2014-11-8,54.1,48.8,42.9,48.1,45.1,41.2,95,87,71,30.48,30.33,6,0,6,0.00
2014-11-9,51.7,46.0,40.4,45.7,42.8,39.6,98,89,74,30.37,30.09,6,0,6,0.00
2014-11-10,52.6,48.3,45.3,50.2,46.4,43.6,97,93,86,30.09,29.84,6,0,6,0.12
2014-11-11,49.4,46.4,41.8,44.9,41.6,36.5,96,84,69,30.19,30.09,10,1,10,0.00
2014-11-12,37.9,33.6,28.6,15.9,13.2,9.8,57,43,33,30.36,30.31,5,0,5,0.00
2014-11-13,42.3,36.8,28.1,12.7,7.8,2.8,50,30,19,30.32,30.08,9,0,9,0.00
2014-11-14,43.6,36.3,27.1,19.3,12.3,6.1,56,38,23,30.08,29.96,5,0,7,0.00
2014-11-15,41.4,35.4,30.0,24.2,17.6,10.3,59,48,36,30.33,30.03,10,0,10,0.00
2014-11-16,42.2,35.6,29.2,24.4,16.9,12.2,62,46,34,30.54,30.33,9,0,9,0.00
2014-11-17,37.4,33.9,33.1,21.9,16.2,12.2,59,48,41,30.51,30.48,5,0,5,0.00
2014-11-18,46.8,41.7,33.5,34.6,29.5,23.6,85,63,41,30.39,30.13,5,0,5,0.00
2014-11-19,45.7,38.6,32.7,36.2,32.7,22.5,96,80,56,30.15,30.06,4,0,4,0.00
2014-11-20,48.7,43.9,36.4,42.1,36.0,27.3,92,74,51,30.07,29.82,7,0,7,0.06
2014-11-21,50.9,46.7,41.4,47.4,44.7,39.0,96,93,87,29.98,29.86,5,0,5,0.01
2014-11-22,49.8,47.5,44.5,49.2,45.8,41.5,98,94,88,29.87,29.28,7,1,7,0.69
2014-11-23,48.2,45.6,43.6,44.8,42.8,41.1,93,90,84,30.13,29.58,6,0,6,0.00
2014-11-24,53.2,46.8,43.3,49.3,44.7,41.3,97,93,82,30.36,30.03,7,0,8,0.41
2014-11-25,52.0,45.6,41.2,50.9,42.8,36.4,98,90,76,30.36,30.07,8,0,8,0.02
2014-11-26,54.8,50.6,46.6,53.4,49.6,45.8,99,97,94,30.23,30.11,12,1,12,0.15
2014-11-27,56.5,54.9,53.6,53.5,52.4,47.7,96,91,76,30.12,29.83,15,1,15,0.00
2014-11-28,55.8,53.5,51.8,52.0,50.5,47.2,95,90,75,29.85,29.58,7,2,23,0.05
2014-11-29,52.1,41.9,34.1,50.8,40.8,32.4,98,96,92,29.62,29.46,7,1,15,1.03
2014-11-30,34.2,27.9,22.3,32.9,23.1,16.6,97,83,60,30.22,29.57,18,1,18,0.00
2014-12-1,32.6,27.5,21.1,25.8,22.2,18.4,91,81,72,30.25,30.10,9,0,9,0.00
2014-12-2,36.0,29.7,24.2,26.7,22.5,17.1,90,74,62,30.24,30.10,5,0,5,0.00
2014-12-3,38.4,33.9,27.7,31.0,28.3,25.2,91,80,65,30.23,29.90,12,1,12,0.03
2014-12-4,41.9,38.7,34.2,36.0,31.9,28.1,88,77,67,29.90,29.75,8,1,8,0.06
2014-12-5,45.7,42.3,39.6,42.5,39.2,34.8,97,89,75,29.96,29.79,2,0,5,0.06
2014-12-6,50.4,46.4,43.1,48.7,44.8,42.1,97,94,81,29.96,29.74,4,0,4,0.29
2014-12-7,51.6,48.4,45.7,49.6,47.1,44.6,97,95,92,30.23,29.84,7,0,9,0.05
2014-12-8,52.2,48.2,43.3,47.7,44.5,41.3,98,87,73,30.23,29.97,5,0,5,0.01
2014-12-9,55.5,50.0,47.4,47.7,45.3,42.4,96,85,64,30.05,29.81,6,0,6,0.62
2014-12-10,57.2,53.8,48.3,54.8,51.3,47.2,98,91,86,29.88,29.60,7,1,15,0.66
2014-12-11,63.0,53.4,49.0,52.7,49.7,44.4,97,87,59,29.61,29.22,16,2,16,0.42
2014-12-12,55.9,49.4,46.2,48.7,45.2,41.0,97,86,65,29.59,29.12,26,1,26,0.40
2014-12-13,50.6,47.5,43.9,46.9,44.8,42.1,97,90,83,30.08,29.59,7,0,7,0.00
2014-12-14,47.4,43.4,38.7,44.3,42.1,37.9,98,95,88,30.23,30.09,3,0,4,0.00
2014-12-15,46.2,40.7,34.5,41.2,36.4,28.3,98,85,60,30.22,29.97,6,0,6,0.00
2014-12-16,49.1,45.1,37.7,37.5,33.0,28.5,82,63,50,29.98,29.81,7,0,7,0.00
2014-12-17,49.1,45.3,39.8,41.9,37.2,31.0,90,74,51,29.85,29.80,2,0,6,0.00
2014-12-18,47.2,44.5,41.8,44.0,41.9,35.1,97,91,76,29.93,29.80,3,0,3,0.20
2014-12-19,47.2,45.7,44.3,46.1,44.1,42.1,97,94,89,29.94,29.70,5,0,6,0.54
2014-12-20,50.9,46.8,43.6,45.7,42.6,38.9,97,85,75,29.94,29.79,7,1,8,0.20
2014-12-21,53.9,47.6,43.3,52.1,46.3,41.4,98,95,90,29.79,29.40,13,1,13,0.53
2014-12-22,53.8,49.8,44.7,49.2,46.7,42.4,94,89,80,30.15,29.63,7,0,7,0.00
2014-12-23,49.2,44.8,40.7,44.9,41.6,39.1,96,89,78,30.37,30.15,2,0,2,0.00
2014-12-24,51.1,44.7,39.2,49.4,42.6,38.2,97,92,83,30.30,30.01,10,0,10,1.12
2014-12-25,42.9,40.5,38.8,40.6,39.1,37.7,97,94,89,30.11,29.89,2,0,4,0.01
2014-12-26,44.3,40.3,38.0,40.7,38.5,36.9,97,93,85,30.31,30.08,3,0,4,0.00
2014-12-27,41.3,39.5,37.9,39.0,37.6,36.4,96,93,87,30.39,30.28,4,0,4,0.00
2014-12-28,49.0,42.9,40.0,44.9,41.1,38.3,98,93,84,30.28,30.01,6,1,7,0.08
2014-12-29,43.5,39.8,36.1,40.1,37.6,35.1,96,92,83,30.22,30.10,5,0,5,0.01
2014-12-30,40.7,36.7,30.6,36.0,28.2,22.1,96,72,56,30.78,30.19,15,2,15,0.00
2014-12-31,34.5,29.8,25.4,22.4,19.6,16.1,79,66,49,30.86,30.71,4,0,4,0.00
2015-1-1,35.3,31.1,26.4,25.1,22.9,20.4,85,72,55,30.72,30.39,5,0,5,0.00
2015-1-2,38.7,32.8,28.1,30.1,26.4,22.2,92,77,64,30.40,30.18,5,0,5,0.00